createdAt,value
2019-05-11T00:00:05.838Z,9.73
2019-05-11T00:02:41.062Z,12.33
2019-05-11T00:05:12.688Z,9.07
2019-05-11T00:19:13.799Z,9.70
2019-05-11T00:21:45.371Z,10.13
2019-05-11T00:24:15.689Z,7.30
2019-05-11T00:26:48.898Z,6.87
2019-05-11T00:29:20.167Z,6.43
2019-05-11T00:31:57.817Z,7.63
2019-05-11T00:43:37.878Z,7.83
2019-05-11T00:46:34.394Z,8.50
2019-05-11T00:49:24.003Z,8.47
2019-05-11T00:51:54.418Z,6.47
2019-05-11T00:54:27.827Z,6.87
2019-05-11T00:57:19.667Z,7.70
2019-05-11T01:00:11.669Z,10.20
2019-05-11T01:03:03.891Z,6.67
2019-05-11T01:05:53.675Z,7.73
2019-05-11T01:08:43.039Z,7.70
2019-05-11T01:11:33.763Z,7.17
2019-05-11T01:14:24.871Z,8.57
2019-05-11T01:17:14.205Z,12.13
2019-05-11T01:20:03.908Z,8.63
2019-05-11T01:22:34.276Z,8.30
2019-05-11T01:25:42.730Z,8.83
2019-05-11T01:28:34.000Z,8.03
2019-05-11T01:31:27.905Z,7.67
2019-05-11T01:37:25.940Z,9.63
2019-05-11T01:40:15.991Z,9.03
2019-05-11T01:42:47.387Z,9.73
2019-05-11T01:45:38.699Z,12.10
2019-05-11T01:48:57.155Z,7.73
2019-05-11T01:51:19.837Z,9.03
2019-05-11T01:54:04.412Z,10.03
2019-05-11T01:56:45.806Z,8.40
2019-05-11T01:59:35.483Z,10.43
2019-05-11T02:02:08.975Z,11.67
2019-05-11T02:04:57.223Z,8.40
2019-05-11T02:07:51.858Z,11.77
2019-05-11T02:10:23.268Z,11.23
2019-05-11T02:13:14.447Z,9.87
2019-05-11T02:16:04.162Z,9.73
2019-05-11T02:18:55.481Z,13.10
2019-05-11T02:21:28.083Z,9.63
2019-05-11T02:26:57.472Z,9.60
2019-05-11T02:29:46.743Z,9.07
2019-05-11T02:32:27.965Z,13.53
2019-05-11T02:34:59.578Z,8.70
2019-05-11T02:37:30.809Z,9.30
2019-05-11T02:40:01.100Z,9.90
2019-05-11T02:42:58.477Z,7.60
2019-05-11T02:45:48.112Z,8.70
2019-05-11T02:48:37.808Z,8.50
2019-05-11T02:51:27.512Z,6.83
2019-05-11T02:54:17.801Z,7.03
2019-05-11T02:56:48.133Z,6.90
2019-05-11T02:59:37.730Z,7.20
2019-05-11T03:02:27.130Z,5.40
2019-05-11T03:05:17.705Z,5.27
2019-05-11T03:08:24.282Z,5.97
2019-05-11T03:11:03.557Z,4.17
2019-05-11T03:13:52.932Z,4.43
2019-05-11T03:16:25.973Z,4.50
2019-05-11T03:19:15.294Z,4.57
2019-05-11T03:22:25.582Z,3.93
2019-05-11T03:25:06.935Z,6.40
2019-05-11T03:27:37.550Z,4.57
2019-05-11T03:30:26.857Z,4.13
2019-05-11T03:33:16.474Z,5.63
2019-05-11T03:36:09.167Z,4.27
2019-05-11T03:38:39.581Z,6.17
2019-05-11T03:41:10.453Z,5.63
2019-05-11T03:44:03.072Z,4.43
2019-05-11T03:46:52.507Z,3.50
2019-05-11T03:49:22.874Z,5.77
2019-05-11T03:51:53.222Z,5.10
2019-05-11T03:54:24.019Z,4.50
2019-05-11T03:56:56.351Z,2.83
2019-05-11T03:59:27.836Z,9.17
2019-05-11T04:02:17.452Z,3.50
2019-05-11T04:05:08.095Z,3.00
2019-05-11T04:07:57.708Z,4.83
2019-05-11T04:10:28.011Z,4.33
2019-05-11T04:13:17.415Z,3.67
2019-05-11T04:16:07.019Z,3.47
2019-05-11T04:18:38.226Z,2.73
2019-05-11T04:21:27.595Z,2.40
2019-05-11T04:23:58.828Z,3.33
2019-05-11T04:26:31.149Z,4.10
2019-05-11T04:29:06.080Z,4.07
2019-05-11T04:31:55.469Z,2.40
2019-05-11T04:34:25.850Z,2.90
2019-05-11T04:36:57.494Z,3.10
2019-05-11T04:39:47.188Z,3.97
2019-05-11T04:42:53.455Z,6.63
2019-05-11T04:45:30.097Z,2.37
2019-05-11T04:48:40.044Z,2.50
2019-05-11T04:51:10.351Z,2.40
2019-05-11T04:53:40.702Z,4.03
2019-05-11T04:56:30.068Z,3.73
2019-05-11T04:59:00.431Z,4.63
2019-05-11T05:01:50.056Z,3.53
2019-05-11T05:04:20.375Z,2.90
2019-05-11T05:06:59.602Z,3.47
2019-05-11T05:09:42.551Z,2.90
2019-05-11T05:12:15.553Z,2.53
2019-05-11T05:14:45.903Z,2.97
2019-05-11T05:17:16.232Z,3.10
2019-05-11T05:19:46.505Z,2.60
2019-05-11T05:22:28.271Z,2.37
2019-05-11T05:25:10.249Z,3.00
2019-05-11T05:27:42.945Z,2.10
2019-05-11T05:30:32.256Z,2.50
2019-05-11T05:36:14.292Z,2.10
2019-05-11T05:38:44.598Z,3.33
2019-05-11T05:41:34.231Z,2.00
2019-05-11T05:47:33.390Z,2.37
2019-05-11T05:50:22.677Z,3.37
2019-05-11T05:53:04.572Z,2.40
2019-05-11T05:55:46.733Z,3.37
2019-05-11T05:58:28.242Z,1.97
2019-05-11T06:01:10.276Z,3.13
2019-05-11T06:04:01.023Z,2.90
2019-05-11T06:06:56.160Z,2.40
2019-05-11T06:09:28.313Z,2.63
2019-05-11T06:11:58.639Z,5.00
2019-05-11T06:14:48.009Z,3.63
2019-05-11T06:17:18.379Z,3.20
2019-05-11T06:20:08.834Z,4.30
2019-05-11T06:22:51.984Z,3.57
2019-05-11T06:25:33.730Z,2.47
2019-05-11T06:28:04.347Z,3.80
2019-05-11T06:30:53.716Z,4.60
2019-05-11T06:33:34.114Z,5.03
2019-05-11T06:36:04.819Z,2.70
2019-05-11T06:41:50.909Z,4.37
2019-05-11T06:44:21.317Z,3.30
2019-05-11T06:47:10.936Z,3.10
2019-05-11T06:50:00.311Z,4.07
2019-05-11T06:52:30.804Z,2.57
2019-05-11T06:55:01.575Z,3.30
2019-05-11T06:57:54.125Z,4.60
2019-05-11T07:00:43.727Z,3.73
2019-05-11T07:03:33.051Z,2.93
2019-05-11T07:08:55.182Z,2.83
2019-05-11T07:11:49.485Z,2.43
2019-05-11T07:14:21.481Z,4.47
2019-05-11T07:45:24.037Z,4.83
2019-05-11T07:47:54.386Z,1.60
2019-05-11T07:50:47.963Z,4.00
2019-05-11T07:53:18.726Z,3.07
2019-05-11T07:56:08.461Z,2.83
2019-05-11T08:01:38.418Z,2.97
2019-05-11T08:07:38.079Z,2.03
2019-05-11T08:10:11.477Z,2.43
2019-05-11T08:12:48.120Z,2.43
2019-05-11T08:15:22.884Z,1.30
2019-05-11T08:21:55.278Z,1.53
2019-05-11T08:25:03.761Z,1.43
2019-05-11T08:31:02.981Z,2.80
2019-05-11T08:33:51.095Z,3.00
2019-05-11T08:36:21.609Z,3.40
2019-05-11T08:38:52.279Z,3.87
2019-05-11T08:41:41.679Z,1.90
2019-05-11T08:44:30.921Z,2.53
2019-05-11T08:47:01.328Z,1.77
2019-05-11T08:49:32.544Z,7.10
2019-05-11T08:52:03.272Z,1.33
2019-05-11T08:54:38.325Z,2.53
2019-05-11T08:57:09.344Z,1.50
2019-05-11T08:59:49.557Z,1.47
2019-05-11T09:02:20.787Z,1.33
2019-05-11T09:05:13.390Z,1.80
2019-05-11T09:10:58.225Z,2.93
2019-05-11T09:13:28.397Z,2.13
2019-05-11T09:15:59.011Z,3.43
2019-05-11T09:18:32.122Z,2.97
2019-05-11T09:21:19.016Z,3.17
2019-05-11T09:23:40.335Z,1.43
2019-05-11T09:26:28.875Z,1.80
2019-05-11T09:28:59.174Z,2.93
2019-05-11T09:31:29.564Z,3.77
2019-05-11T09:34:18.979Z,1.10
2019-05-11T09:37:08.701Z,3.63
2019-05-11T09:39:39.023Z,5.50
2019-05-11T09:42:30.663Z,1.50
2019-05-11T10:09:38.990Z,1.13
2019-05-11T10:12:09.797Z,1.47
2019-05-11T10:14:40.414Z,1.83
2019-05-11T10:17:11.110Z,1.53
2019-05-11T10:25:52.103Z,1.13
2019-05-11T10:28:42.292Z,1.50
2019-05-11T10:31:12.671Z,1.20
2019-05-11T10:34:08.664Z,1.63
2019-05-11T10:37:01.325Z,1.87
2019-05-11T10:39:49.236Z,0.73
2019-05-11T10:42:58.925Z,0.73
2019-05-11T10:45:53.296Z,0.87
2019-05-11T10:48:42.642Z,1.10
2019-05-11T10:51:18.145Z,1.23
2019-05-11T10:56:44.808Z,1.47
2019-05-11T10:59:35.727Z,1.03
2019-05-11T11:02:25.056Z,1.87
2019-05-11T11:04:58.893Z,2.37
2019-05-11T11:07:32.157Z,1.40
2019-05-11T11:10:24.167Z,0.80
2019-05-11T11:12:54.454Z,4.20
2019-05-11T11:15:45.204Z,1.80
2019-05-11T11:18:24.827Z,0.60
2019-05-11T11:21:14.410Z,0.77
2019-05-11T11:23:44.723Z,0.93
2019-05-11T11:26:15.195Z,0.77
2019-05-11T11:28:47.840Z,0.80
2019-05-11T11:31:20.047Z,0.53
2019-05-11T11:34:09.347Z,0.90
2019-05-11T11:36:40.650Z,1.50
2019-05-11T11:39:11.284Z,1.17
2019-05-11T11:42:00.868Z,0.60
2019-05-11T11:44:50.342Z,0.40
2019-05-11T11:47:42.067Z,0.63
2019-05-11T11:50:12.733Z,0.87
2019-05-11T11:53:02.067Z,0.70
2019-05-11T11:55:32.412Z,3.37
2019-05-11T12:01:03.096Z,0.60
2019-05-11T12:03:33.391Z,1.93
2019-05-11T12:06:22.730Z,1.00
2019-05-11T12:09:15.312Z,1.73
2019-05-11T12:12:08.441Z,1.60
2019-05-11T12:14:41.654Z,1.40
2019-05-11T12:17:12.013Z,0.87
2019-05-11T12:19:47.845Z,0.73
2019-05-11T12:22:38.915Z,0.70
2019-05-11T12:25:09.529Z,0.93
2019-05-11T12:27:43.139Z,1.77
2019-05-11T12:30:13.646Z,0.77
2019-05-11T12:33:32.050Z,0.53
2019-05-11T12:36:21.399Z,1.10
2019-05-11T12:38:51.757Z,2.03
2019-05-11T12:41:23.360Z,0.47
2019-05-11T12:44:12.747Z,0.70
2019-05-11T12:47:24.817Z,1.63
2019-05-11T12:53:23.600Z,0.67
2019-05-11T12:56:34.521Z,0.57
2019-05-11T12:59:04.913Z,0.87
2019-05-11T13:01:59.082Z,0.67
2019-05-11T13:04:48.690Z,0.60
2019-05-11T13:07:39.284Z,0.40
2019-05-11T13:10:30.163Z,0.73
2019-05-11T13:13:02.664Z,0.60
2019-05-11T13:15:51.872Z,1.20
2019-05-11T13:18:41.117Z,1.90
2019-05-11T13:21:30.792Z,0.80
2019-05-11T13:24:04.040Z,1.03
2019-05-11T13:26:34.387Z,1.77
2019-05-11T13:29:28.809Z,1.10
2019-05-11T13:32:18.775Z,2.50
2019-05-11T13:38:08.933Z,0.43
2019-05-11T13:41:00.610Z,3.80
2019-05-11T13:43:30.954Z,8.20
2019-05-11T13:46:01.265Z,18.73
2019-05-11T13:48:33.464Z,6.83
2019-05-11T13:51:03.814Z,2.67
2019-05-11T13:53:34.304Z,0.93
2019-05-11T14:21:41.377Z,1.60
2019-05-11T14:24:12.966Z,3.57
2019-05-11T14:30:11.803Z,0.50
2019-05-11T14:32:31.176Z,1.10
2019-05-11T14:35:01.597Z,1.87
2019-05-11T14:37:51.103Z,0.83
2019-05-11T14:40:23.958Z,2.43
2019-05-11T14:43:13.633Z,0.60
2019-05-11T14:46:21.851Z,2.73
2019-05-11T14:49:27.492Z,2.97
2019-05-11T14:52:18.600Z,1.83
2019-05-11T15:15:22.982Z,0.70
2019-05-11T15:18:13.674Z,3.17
2019-05-11T15:20:49.538Z,0.40
2019-05-11T15:23:38.874Z,0.80
2019-05-11T15:26:28.551Z,0.40
2019-05-11T15:29:18.439Z,0.50
2019-05-11T15:32:08.513Z,1.03
2019-05-11T15:35:00.765Z,0.60
2019-05-11T15:37:44.065Z,1.23
2019-05-11T15:40:24.125Z,0.47
2019-05-11T15:42:54.506Z,0.50
2019-05-11T15:45:44.151Z,2.20
2019-05-11T15:48:33.518Z,1.97
2019-05-11T15:51:04.247Z,0.80
2019-05-11T15:53:34.830Z,1.27
2019-05-11T15:56:19.015Z,2.60
2019-05-11T15:58:49.990Z,0.70
2019-05-11T16:01:41.130Z,0.60
2019-05-11T16:04:30.421Z,2.00
2019-05-11T16:07:08.255Z,2.70
2019-05-11T16:09:57.887Z,0.90
2019-05-11T16:12:50.566Z,1.10
2019-05-11T16:15:21.237Z,3.57
2019-05-11T16:18:12.914Z,2.73
2019-05-11T16:20:43.364Z,1.27
2019-05-11T16:23:51.878Z,0.80
2019-05-11T16:26:49.650Z,1.07
2019-05-11T16:32:32.284Z,0.93
2019-05-11T16:37:53.450Z,1.03
2019-05-11T16:40:42.980Z,3.07
2019-05-11T16:43:15.087Z,1.20
2019-05-11T16:45:51.094Z,1.37
2019-05-11T16:48:21.276Z,1.17
2019-05-11T16:51:13.156Z,2.90
2019-05-11T16:54:23.097Z,3.57
2019-05-11T16:56:54.361Z,3.23
2019-05-11T17:00:03.099Z,2.63
2019-05-11T17:02:37.800Z,3.43
2019-05-11T17:05:33.896Z,3.90
2019-05-11T17:08:24.922Z,3.70
2019-05-11T17:10:59.056Z,3.77
2019-05-11T17:13:32.778Z,5.27
2019-05-11T17:16:24.251Z,18.63
2019-05-11T17:19:13.628Z,4.33
2019-05-11T17:24:58.796Z,4.83
2019-05-11T17:27:50.046Z,4.80
2019-05-11T17:30:28.093Z,5.43
2019-05-11T17:33:17.804Z,6.40
2019-05-11T17:36:00.497Z,6.83
2019-05-11T17:38:32.197Z,8.23
2019-05-11T17:44:03.133Z,6.37
2019-05-11T17:46:52.809Z,7.17
2019-05-11T17:50:03.976Z,8.37
2019-05-11T17:53:25.217Z,5.57
2019-05-11T17:56:06.108Z,6.00
2019-05-11T17:58:54.871Z,8.57
2019-05-11T18:01:41.864Z,8.37
2019-05-11T18:04:23.949Z,6.60
2019-05-11T18:07:25.102Z,7.97
2019-05-11T18:09:48.448Z,8.47
2019-05-11T18:12:40.651Z,4.77
2019-05-11T18:15:37.906Z,4.80
2019-05-11T18:18:29.020Z,5.87
2019-05-11T18:20:59.044Z,4.93
2019-05-11T18:23:29.722Z,6.27
2019-05-11T18:26:19.352Z,9.33
2019-05-11T18:29:23.116Z,4.43
2019-05-11T18:31:59.984Z,4.73
2019-05-11T18:35:09.615Z,3.80
2019-05-11T18:37:51.602Z,5.67
2019-05-11T18:40:24.045Z,4.90
2019-05-11T18:42:54.514Z,4.23
2019-05-11T18:45:25.158Z,4.87
2019-05-11T18:47:57.845Z,4.87
2019-05-11T18:50:31.013Z,3.93
2019-05-11T18:53:00.576Z,5.00
2019-05-11T18:55:31.791Z,4.00
2019-05-11T18:58:24.207Z,5.13
2019-05-11T19:03:52.338Z,3.87
2019-05-11T19:06:41.939Z,4.93
2019-05-11T19:09:12.365Z,4.70
2019-05-11T19:12:02.006Z,5.90
2019-05-11T19:14:32.460Z,6.57
2019-05-11T19:17:03.281Z,6.50
2019-05-11T19:19:37.973Z,5.13
2019-05-11T19:22:29.065Z,7.10
2019-05-11T19:25:21.898Z,9.50
2019-05-11T19:28:11.327Z,7.13
2019-05-11T19:30:41.949Z,6.30
2019-05-11T19:33:12.600Z,8.53
2019-05-11T19:36:05.010Z,10.30
2019-05-11T19:38:54.459Z,8.67
2019-05-11T19:41:43.654Z,11.33
2019-05-11T19:44:38.606Z,13.37
2019-05-11T19:47:37.860Z,10.73
2019-05-11T19:50:10.140Z,12.03
2019-05-11T19:53:19.707Z,10.10
2019-05-11T19:59:08.826Z,12.03
2019-05-11T20:02:03.256Z,11.10
2019-05-11T20:04:38.806Z,12.03
2019-05-11T20:07:31.996Z,10.53
2019-05-11T20:10:21.382Z,13.23
2019-05-11T20:13:31.830Z,11.00
2019-05-11T20:19:15.480Z,11.80
2019-05-11T20:22:06.607Z,15.00
2019-05-11T20:24:36.947Z,12.10
2019-05-11T20:27:28.369Z,12.70
2019-05-11T20:30:20.562Z,10.77
2019-05-11T20:33:12.733Z,13.67
2019-05-11T20:36:11.619Z,11.37
2019-05-11T20:39:01.478Z,10.53
2019-05-11T20:41:39.037Z,14.73
2019-05-11T20:44:20.458Z,9.73
2019-05-11T20:47:12.870Z,10.57
2019-05-11T20:50:02.206Z,10.03
2019-05-11T20:52:53.466Z,11.40
2019-05-11T20:58:55.865Z,8.07
2019-05-11T21:01:45.353Z,8.37
2019-05-11T21:04:34.760Z,7.30
2019-05-11T21:07:42.941Z,9.90
2019-05-11T21:10:13.544Z,10.33
2019-05-11T21:12:45.241Z,8.90
2019-05-11T21:15:16.100Z,7.60
2019-05-11T21:17:50.299Z,6.17
2019-05-11T21:20:23.849Z,8.00
2019-05-11T21:23:18.547Z,6.77
2019-05-11T21:26:09.996Z,8.73
2019-05-11T21:28:44.546Z,8.30
2019-05-11T21:31:34.044Z,8.00
2019-05-11T21:34:23.353Z,8.67
2019-05-11T21:36:53.919Z,8.33
2019-05-11T21:39:43.305Z,8.37
2019-05-11T21:45:22.304Z,7.70
2019-05-11T21:51:22.934Z,7.63
2019-05-11T21:53:53.269Z,7.43
2019-05-11T21:56:23.588Z,7.10
2019-05-11T21:59:24.670Z,7.23
2019-05-11T22:01:44.998Z,5.47
2019-05-11T22:04:15.312Z,7.17
2019-05-11T22:07:04.831Z,6.13
2019-05-11T22:09:38.527Z,5.37
2019-05-11T22:12:11.759Z,5.23
2019-05-11T22:15:04.571Z,4.73
2019-05-11T22:17:53.911Z,4.77
2019-05-11T22:20:48.637Z,4.70
2019-05-11T22:22:58.244Z,5.83
2019-05-11T22:25:50.574Z,5.80
2019-05-11T22:28:40.226Z,6.63
2019-05-11T22:31:29.522Z,8.00
2019-05-11T22:34:25.076Z,6.50
2019-05-11T22:36:53.781Z,8.87
2019-05-11T22:39:24.519Z,7.50
2019-05-11T22:42:13.824Z,7.87
2019-05-11T22:44:44.278Z,8.23
2019-05-11T22:47:14.998Z,10.73
2019-05-11T22:49:49.665Z,8.70
2019-05-11T22:52:40.482Z,8.33
2019-05-11T22:58:00.892Z,7.50
2019-05-11T23:00:53.085Z,12.10
2019-05-11T23:03:44.220Z,10.17
2019-05-11T23:09:41.860Z,10.33
2019-05-11T23:12:51.779Z,9.60
2019-05-11T23:15:59.991Z,10.23
2019-05-11T23:18:49.321Z,9.57
2019-05-11T23:21:38.986Z,11.73
2019-05-11T23:24:29.730Z,9.53
2019-05-11T23:27:00.231Z,9.27
2019-05-11T23:29:47.730Z,10.87
2019-05-11T23:32:23.892Z,8.47
2019-05-11T23:35:13.622Z,7.80
2019-05-11T23:37:51.716Z,10.67
2019-05-11T23:40:41.049Z,7.67
2019-05-11T23:43:30.423Z,7.63
2019-05-11T23:46:19.814Z,9.77
2019-05-11T23:49:09.173Z,9.77
2019-05-11T23:51:39.769Z,11.17
2019-05-11T23:54:29.104Z,9.20
2019-05-11T23:57:38.700Z,8.27
